Time;durP1;ratioP1;P1;durP2;ratioP2;P2;SDS_P1;SDS_P2;PMS_P1;PMS_P2;Temp;Humidity;BMP_temperature;BMP_pressure;BME280_temperature;BME280_humidity;BME280_pressure;Samples;Min_cycle;Max_cycle;Signal;HPM_P1;HPM_P2
2022/07/24 00:04:35;;;;;;;3.15;2.28;;;29.80;49.10;;;;;;10415249;28;20140;-41
2022/07/24 00:09:38;;;;;;;5.00;2.50;;;29.80;48.60;;;;;;10427081;28;20080;-44
2022/07/24 00:14:40;;;;;;;3.88;2.90;;;29.70;48.40;;;;;;10416036;28;20128;-44
2022/07/24 00:19:42;;;;;;;2.90;2.30;;;29.60;48.30;;;;;;10421831;28;20496;-43
2022/07/24 00:24:45;;;;;;;4.03;2.47;;;29.60;48.40;;;;;;10414699;28;20072;-41
2022/07/24 00:29:47;;;;;;;4.90;2.95;;;29.60;48.30;;;;;;10414548;28;20076;-47
2022/07/24 00:34:49;;;;;;;2.90;2.35;;;29.50;48.30;;;;;;10415045;28;20045;-45
2022/07/24 00:39:52;;;;;;;3.47;2.55;;;29.50;48.30;;;;;;10412501;28;20055;-41
2022/07/24 00:44:54;;;;;;;3.80;3.42;;;29.40;48.20;;;;;;10413639;28;20450;-40
2022/07/24 00:49:55;;;;;;;4.47;3.17;;;29.40;48.20;;;;;;10407552;28;20053;-40
2022/07/24 00:54:59;;;;;;;2.63;2.00;;;29.40;48.30;;;;;;10413374;28;20057;-43
2022/07/24 01:00:01;;;;;;;4.00;2.30;;;29.30;48.10;;;;;;10414097;28;20046;-44
2022/07/24 01:05:03;;;;;;;4.72;2.83;;;29.30;48.10;;;;;;10426419;28;20491;-41
2022/07/24 01:10:07;;;;;;;2.85;2.13;;;29.20;48.10;;;;;;10413261;28;20068;-46
2022/07/24 01:15:11;;;;;;;2.78;2.03;;;29.20;48.10;;;;;;10408633;28;20045;-45
2022/07/24 01:20:13;;;;;;;2.55;1.90;;;29.10;48.10;;;;;;10406026;28;20034;-48
2022/07/24 01:25:16;;;;;;;3.13;2.10;;;29.10;48.00;;;;;;10419000;28;20045;-47
2022/07/24 01:30:18;;;;;;;3.03;2.08;;;29.10;48.00;;;;;;10412218;28;20084;-47
2022/07/24 01:35:20;;;;;;;3.33;2.25;;;29.00;47.90;;;;;;10412315;28;20119;-45
2022/07/24 01:40:24;;;;;;;5.57;2.22;;;29.00;48.00;;;;;;10412044;28;20077;-43
2022/07/24 01:45:26;;;;;;;2.70;2.10;;;29.00;48.10;;;;;;10411349;28;20045;-46
2022/07/24 01:50:27;;;;;;;3.67;1.90;;;28.90;48.10;;;;;;10411577;28;20042;-44
2022/07/24 01:55:31;;;;;;;2.28;1.80;;;28.90;47.90;;;;;;10410413;28;20068;-43
2022/07/24 02:00:33;;;;;;;1.83;1.45;;;28.90;48.20;;;;;;10405370;28;20132;-47
2022/07/24 02:05:35;;;;;;;2.20;2.00;;;28.80;48.10;;;;;;10392300;28;20084;-44
2022/07/24 02:10:38;;;;;;;2.78;1.92;;;28.80;48.10;;;;;;10389128;28;20085;-47
2022/07/24 02:15:40;;;;;;;1.90;1.70;;;28.70;48.80;;;;;;10387984;28;20120;-45
2022/07/24 02:20:42;;;;;;;2.63;1.90;;;28.70;48.30;;;;;;10385010;28;20141;-42
2022/07/24 02:25:46;;;;;;;4.85;1.88;;;28.70;48.20;;;;;;10388668;28;20054;-44
2022/07/24 02:30:48;;;;;;;2.58;2.08;;;28.60;48.10;;;;;;10408775;28;20049;-46
2022/07/24 02:35:50;;;;;;;1.98;1.77;;;28.60;48.00;;;;;;10385579;28;20080;-43
2022/07/24 02:40:53;;;;;;;3.92;2.00;;;28.60;48.30;;;;;;10388761;28;20394;-41
2022/07/24 02:45:56;;;;;;;2.55;1.60;;;28.50;48.00;;;;;;10393931;28;20545;-45
2022/07/24 02:50:57;;;;;;;2.13;1.55;;;28.50;48.20;;;;;;10404274;28;20045;-48
2022/07/24 02:56:01;;;;;;;2.75;1.75;;;28.50;48.00;;;;;;10408922;28;20386;-49
2022/07/24 03:01:03;;;;;;;3.47;2.67;;;28.40;48.20;;;;;;10413082;28;20056;-45
2022/07/24 03:06:06;;;;;;;4.15;1.40;;;28.40;48.00;;;;;;10390340;28;20096;-42
2022/07/24 03:11:09;;;;;;;2.20;1.70;;;28.40;48.00;;;;;;10382917;28;20099;-45
2022/07/24 03:16:11;;;;;;;3.92;1.85;;;28.40;48.10;;;;;;10411404;28;20069;-48
2022/07/24 03:21:13;;;;;;;2.92;1.50;;;28.30;47.90;;;;;;10396841;28;20485;-44
2022/07/24 03:26:17;;;;;;;2.90;1.58;;;28.30;48.00;;;;;;10414907;28;20128;-41
2022/07/24 03:31:19;;;;;;;3.65;2.10;;;28.20;48.20;;;;;;10408158;28;20120;-42
2022/07/24 03:36:21;;;;;;;2.92;1.90;;;28.20;48.00;;;;;;10398332;28;20578;-43
2022/07/24 03:41:24;;;;;;;2.03;1.50;;;28.10;47.90;;;;;;10412281;28;20146;-43
2022/07/24 03:46:28;;;;;;;1.50;1.20;;;28.10;48.10;;;;;;10416323;28;20181;-45
2022/07/24 03:51:29;;;;;;;1.48;1.15;;;28.10;48.10;;;;;;10415954;28;20092;-46
2022/07/24 03:56:33;;;;;;;2.13;1.40;;;28.10;48.10;;;;;;10415730;28;20120;-41
2022/07/24 04:01:34;;;;;;;1.85;1.20;;;28.00;47.90;;;;;;10415256;28;20469;-42
2022/07/24 04:06:36;;;;;;;1.42;1.20;;;28.00;47.80;;;;;;10403972;28;20081;-41
2022/07/24 04:11:40;;;;;;;1.85;1.10;;;28.00;48.10;;;;;;10402853;28;20506;-46
2022/07/24 04:16:42;;;;;;;2.47;1.10;;;27.90;48.00;;;;;;10380119;28;20086;-45
2022/07/24 04:21:44;;;;;;;1.45;1.17;;;27.90;48.20;;;;;;10415125;28;20103;-42
2022/07/24 04:26:47;;;;;;;2.13;1.38;;;27.90;48.20;;;;;;10412338;28;20045;-47
2022/07/24 04:31:49;;;;;;;2.63;1.30;;;27.90;47.80;;;;;;10397310;28;20065;-45
2022/07/24 04:36:51;;;;;;;2.17;1.23;;;27.80;47.80;;;;;;10409591;28;20129;-45
2022/07/24 04:41:54;;;;;;;1.77;1.40;;;27.80;47.80;;;;;;10414668;28;20053;-43
2022/07/24 04:46:56;;;;;;;3.33;2.40;;;27.80;47.60;;;;;;10412898;28;20472;-46
2022/07/24 04:51:58;;;;;;;4.05;2.80;;;27.80;47.90;;;;;;10407256;28;20041;-42
2022/07/24 04:57:01;;;;;;;7.88;4.65;;;27.70;47.60;;;;;;10413738;28;20381;-46
2022/07/24 05:02:03;;;;;;;7.03;4.80;;;27.70;47.70;;;;;;10425882;28;20478;-44
2022/07/24 05:07:05;;;;;;;15.65;9.48;;;27.70;47.70;;;;;;10412801;28;20045;-47
2022/07/24 05:12:08;;;;;;;12.48;7.63;;;27.70;47.70;;;;;;10403282;28;20076;-45
2022/07/24 05:17:10;;;;;;;16.50;10.35;;;27.70;47.70;;;;;;10412948;28;20072;-44
2022/07/24 05:22:12;;;;;;;19.65;11.30;;;27.80;47.70;;;;;;10411890;28;20124;-43
2022/07/24 05:27:15;;;;;;;17.58;11.00;;;27.80;47.60;;;;;;10412762;28;20072;-45
2022/07/24 05:32:17;;;;;;;21.52;12.85;;;27.70;47.60;;;;;;10412185;28;20128;-50
2022/07/24 05:37:19;;;;;;;19.67;11.90;;;27.70;47.50;;;;;;10411357;28;20128;-50
2022/07/24 05:42:22;;;;;;;15.68;7.10;;;27.60;47.50;;;;;;10411116;28;20056;-45
2022/07/24 05:47:24;;;;;;;19.48;10.95;;;27.60;47.60;;;;;;10410121;28;20037;-40
2022/07/24 05:52:26;;;;;;;8.30;5.38;;;27.60;47.60;;;;;;10410684;28;20068;-45
2022/07/24 05:57:29;;;;;;;19.52;10.43;;;27.50;47.60;;;;;;10411579;28;20120;-43
2022/07/24 06:02:31;;;;;;;9.02;4.32;;;27.50;47.70;;;;;;10411009;28;20128;-44
2022/07/24 06:07:33;;;;;;;14.70;9.10;;;27.50;47.80;;;;;;10405091;28;20045;-42
2022/07/24 06:12:36;;;;;;;11.10;6.38;;;27.60;47.70;;;;;;10401310;28;20144;-45
2022/07/24 06:17:38;;;;;;;12.38;7.78;;;27.60;47.50;;;;;;10410646;28;20095;-44
2022/07/24 06:22:41;;;;;;;10.90;3.83;;;27.60;48.20;;;;;;10394028;28;20045;-42
2022/07/24 06:27:46;;;;;;;5.90;3.70;;;27.60;47.60;;;;;;10399006;28;20038;-41
2022/07/24 06:32:49;;;;;;;9.82;6.00;;;27.60;47.70;;;;;;10392531;28;20065;-41
2022/07/24 06:37:51;;;;;;;7.10;4.15;;;27.60;47.80;;;;;;10412264;28;20157;-42
2022/07/24 06:42:54;;;;;;;8.30;4.63;;;27.80;47.70;;;;;;10410100;28;20536;-42
2022/07/24 06:47:56;;;;;;;6.43;3.58;;;27.80;47.70;;;;;;10382445;28;20462;-43
2022/07/24 06:52:58;;;;;;;7.30;3.90;;;27.80;47.70;;;;;;10407324;28;20101;-41
2022/07/24 06:58:01;;;;;;;5.60;3.30;;;27.70;47.70;;;;;;10404712;28;20042;-42
2022/07/24 07:03:03;;;;;;;7.65;3.28;;;27.90;47.50;;;;;;10413888;28;20178;-41
2022/07/24 07:08:05;;;;;;;5.50;2.35;;;28.00;47.70;;;;;;10410910;28;20045;-40
2022/07/24 07:13:08;;;;;;;5.85;2.20;;;28.00;47.90;;;;;;10414951;28;20228;-41
2022/07/24 07:18:10;;;;;;;3.30;1.55;;;28.00;48.20;;;;;;10411071;28;20534;-43
2022/07/24 07:23:12;;;;;;;3.97;1.75;;;28.10;48.00;;;;;;10406805;28;20080;-40
2022/07/24 07:28:15;;;;;;;4.70;1.85;;;28.20;48.00;;;;;;10404478;28;20119;-42
2022/07/24 07:33:17;;;;;;;6.03;2.00;;;28.20;47.90;;;;;;10412530;28;20056;-46
2022/07/24 07:38:19;;;;;;;2.30;1.27;;;28.30;47.70;;;;;;10412664;28;20478;-44
2022/07/24 07:43:22;;;;;;;2.05;1.25;;;28.20;48.00;;;;;;10413267;28;20049;-43
2022/07/24 07:48:24;;;;;;;1.70;1.23;;;28.30;48.30;;;;;;10412474;28;20076;-40
2022/07/24 07:53:26;;;;;;;2.53;1.27;;;28.30;48.20;;;;;;10411287;28;20048;-44
2022/07/24 07:58:29;;;;;;;2.08;1.45;;;28.30;48.40;;;;;;10400006;28;20068;-45
2022/07/24 08:03:31;;;;;;;2.10;1.23;;;28.30;48.10;;;;;;10396704;28;20084;-42
2022/07/24 08:08:33;;;;;;;2.95;1.27;;;28.40;48.00;;;;;;10413782;28;20099;-43
2022/07/24 08:13:36;;;;;;;4.05;1.27;;;28.40;48.10;;;;;;10421453;28;20110;-42
2022/07/24 08:18:39;;;;;;;1.50;1.00;;;28.40;48.00;;;;;;10395144;28;20076;-46
2022/07/24 08:23:41;;;;;;;4.32;1.40;;;28.40;48.10;;;;;;10405751;28;20045;-47
2022/07/24 08:28:44;;;;;;;2.53;1.17;;;28.30;48.00;;;;;;10408850;28;20537;-42
2022/07/24 08:33:46;;;;;;;3.63;1.20;;;28.40;48.30;;;;;;10411489;28;20087;-43
2022/07/24 08:38:48;;;;;;;2.45;1.38;;;28.30;48.30;;;;;;10406878;28;20152;-41
2022/07/24 08:43:51;;;;;;;6.53;1.58;;;28.30;48.40;;;;;;10383738;28;20087;-44
2022/07/24 08:48:54;;;;;;;4.00;1.80;;;28.30;48.10;;;;;;10406216;28;20123;-42
2022/07/24 08:53:56;;;;;;;2.75;1.35;;;28.30;48.30;;;;;;10382199;28;20046;-43
2022/07/24 08:58:59;;;;;;;2.20;1.30;;;28.40;48.20;;;;;;10401777;28;20080;-42
2022/07/24 09:04:01;;;;;;;1.67;1.13;;;28.30;48.20;;;;;;10402505;28;20069;-46
2022/07/24 09:09:04;;;;;;;2.55;1.67;;;28.30;48.20;;;;;;10399143;28;20051;-42
2022/07/24 09:19:31;;;;;;;1.80;1.50;;;28.40;48.30;;;;;;10393460;28;20045;-44
2022/07/24 09:24:33;;;;;;;3.88;2.03;;;28.30;48.20;;;;;;10406320;28;20041;-47
2022/07/24 09:29:36;;;;;;;5.32;1.65;;;28.40;48.20;;;;;;10403822;28;20042;-43
2022/07/24 09:34:40;;;;;;;2.97;1.60;;;28.50;48.00;;;;;;10410818;28;20041;-42
2022/07/24 09:39:42;;;;;;;2.25;1.50;;;28.50;48.10;;;;;;10400400;28;20049;-43
2022/07/24 09:44:46;;;;;;;2.78;1.55;;;28.60;48.00;;;;;;10403145;28;20092;-42
2022/07/24 09:49:49;;;;;;;4.63;2.33;;;28.60;47.90;;;;;;10395081;28;20077;-43
2022/07/24 09:54:52;;;;;;;3.80;1.75;;;28.60;47.80;;;;;;10396869;28;20395;-44
2022/07/24 09:59:57;;;;;;;1.67;1.45;;;28.70;47.90;;;;;;10412954;28;20133;-45
2022/07/24 10:05:01;;;;;;;3.45;1.98;;;28.70;47.70;;;;;;10392537;28;20046;-47
2022/07/24 10:10:03;;;;;;;4.57;1.88;;;28.80;47.70;;;;;;10379975;28;20044;-43
2022/07/24 10:15:08;;;;;;;2.42;1.23;;;28.80;47.70;;;;;;10389237;28;20447;-45
2022/07/24 10:20:12;;;;;;;1.85;1.50;;;28.90;47.70;;;;;;10402295;28;20042;-43
2022/07/24 10:25:20;;;;;;;4.53;1.40;;;28.80;47.80;;;;;;10398148;28;20091;-44
2022/07/24 10:30:23;;;;;;;1.95;1.20;;;28.80;47.90;;;;;;10393431;28;20547;-41
2022/07/24 10:35:31;;;;;;;3.75;1.75;;;28.90;47.70;;;;;;10395310;28;20064;-48
2022/07/24 10:40:40;;;;;;;2.30;1.50;;;28.90;47.80;;;;;;10389500;28;20053;-44
2022/07/24 10:45:45;;;;;;;3.83;1.95;;;28.90;47.70;;;;;;10388689;28;20140;-46
2022/07/24 10:51:08;;;;;;;4.25;1.60;;;29.00;47.70;;;;;;10397664;28;20045;-42
2022/07/24 10:56:25;;;;;;;2.92;1.50;;;29.10;47.70;;;;;;10399774;28;20477;-41
2022/07/24 11:01:38;;;;;;;3.22;1.40;;;29.20;47.50;;;;;;10394253;28;20132;-44
2022/07/24 11:06:43;;;;;;;3.08;1.67;;;29.20;47.50;;;;;;10398445;28;20474;-47
2022/07/24 11:12:06;;;;;;;3.05;1.60;;;29.40;47.20;;;;;;10380492;28;20044;-40
2022/07/24 11:17:38;;;;;;;5.43;2.38;;;29.40;47.10;;;;;;10395259;28;20192;-41
2022/07/24 11:22:42;;;;;;;6.90;1.90;;;29.50;47.10;;;;;;10402550;28;20041;-42
2022/07/24 11:27:56;;;;;;;4.60;1.73;;;29.60;47.00;;;;;;10389785;28;20048;-41
2022/07/24 11:33:00;;;;;;;4.43;2.17;;;29.60;47.10;;;;;;10394796;28;20075;-46
2022/07/24 11:38:04;;;;;;;2.15;1.30;;;29.50;47.30;;;;;;10399855;28;20137;-42
2022/07/24 11:43:08;;;;;;;3.25;1.80;;;29.50;47.20;;;;;;10408713;28;20070;-44
2022/07/24 11:48:20;;;;;;;6.53;1.67;;;29.60;47.20;;;;;;10411927;28;20140;-43
2022/07/24 11:53:22;;;;;;;1.65;1.38;;;29.70;47.10;;;;;;10403132;28;20046;-42
2022/07/24 11:58:24;;;;;;;3.53;1.48;;;29.70;47.20;;;;;;10405692;28;20382;-49
2022/07/24 12:03:27;;;;;;;6.18;1.42;;;29.70;47.00;;;;;;10398606;28;20052;-43
2022/07/24 12:08:29;;;;;;;2.58;1.70;;;29.80;47.10;;;;;;10411549;28;20391;-39
2022/07/24 12:13:33;;;;;;;4.13;1.80;;;29.80;47.00;;;;;;10410997;28;20138;-39
2022/07/24 12:18:37;;;;;;;7.90;1.80;;;29.90;47.10;;;;;;10410922;28;20136;-43
2022/07/24 12:23:39;;;;;;;1.63;1.35;;;29.80;47.00;;;;;;10407909;28;20053;-45
2022/07/24 12:28:41;;;;;;;3.00;1.40;;;29.90;47.10;;;;;;10413362;28;20103;-41
2022/07/24 12:33:54;;;;;;;3.38;1.92;;;30.00;47.00;;;;;;10411973;28;20064;-41
2022/07/24 12:38:57;;;;;;;6.88;1.58;;;30.00;47.60;;;;;;10407664;28;20095;-43
2022/07/24 12:44:01;;;;;;;3.03;1.65;;;30.10;47.00;;;;;;10409699;28;20049;-40
2022/07/24 12:49:06;;;;;;;2.03;1.48;;;30.10;47.10;;;;;;10407013;28;20136;-45
2022/07/24 12:54:08;;;;;;;1.92;1.40;;;30.10;47.20;;;;;;10396590;28;20164;-40
2022/07/24 12:59:11;;;;;;;3.95;1.70;;;30.20;47.00;;;;;;10408385;28;20406;-44
2022/07/24 13:04:17;;;;;;;2.80;1.80;;;30.20;47.00;;;;;;10414986;28;20042;-41
2022/07/24 13:09:20;;;;;;;1.92;1.60;;;30.30;47.10;;;;;;10396010;28;20503;-41
2022/07/24 13:14:24;;;;;;;2.75;1.98;;;30.30;47.00;;;;;;10406041;28;20557;-42
2022/07/24 13:19:27;;;;;;;1.40;1.25;;;30.30;47.10;;;;;;10405447;28;20068;-45
2022/07/24 13:24:30;;;;;;;2.13;1.70;;;30.40;47.20;;;;;;10396186;28;20111;-42
2022/07/24 13:29:34;;;;;;;3.72;1.40;;;30.40;47.30;;;;;;10396064;28;20048;-42
2022/07/24 13:34:37;;;;;;;3.42;1.60;;;30.50;47.10;;;;;;10396014;28;20037;-42
2022/07/24 13:39:39;;;;;;;4.72;1.92;;;30.50;47.20;;;;;;10406294;28;20045;-45
2022/07/24 13:44:41;;;;;;;2.20;1.65;;;30.50;47.40;;;;;;10405380;28;20183;-44
2022/07/24 13:49:44;;;;;;;3.50;1.20;;;30.50;47.30;;;;;;10411023;28;20072;-45
2022/07/24 13:54:46;;;;;;;3.63;1.75;;;30.60;47.30;;;;;;10402728;28;20625;-42
2022/07/24 13:59:48;;;;;;;3.72;1.73;;;30.60;47.60;;;;;;10399598;28;20646;-40
2022/07/24 14:04:51;;;;;;;6.70;2.28;;;30.70;47.50;;;;;;10383013;28;20133;-41
2022/07/24 14:09:54;;;;;;;3.65;1.70;;;30.70;47.60;;;;;;10400291;28;20469;-40
2022/07/24 14:14:56;;;;;;;2.20;1.67;;;30.80;47.80;;;;;;10408146;28;20041;-42
2022/07/24 14:19:59;;;;;;;2.92;1.60;;;30.90;47.80;;;;;;10390978;28;20069;-42
2022/07/24 14:25:01;;;;;;;2.35;1.60;;;31.00;47.90;;;;;;10391388;28;20156;-41
2022/07/24 14:30:04;;;;;;;4.57;1.75;;;31.00;47.80;;;;;;10394516;28;20087;-41
2022/07/24 14:35:08;;;;;;;2.97;2.53;;;31.10;47.90;;;;;;10401409;28;20085;-44
2022/07/24 14:40:11;;;;;;;4.82;1.90;;;31.10;48.00;;;;;;10391745;28;20072;-42
2022/07/24 14:45:13;;;;;;;3.67;1.75;;;31.10;47.70;;;;;;10400865;28;20128;-40
2022/07/24 14:50:16;;;;;;;10.10;2.63;;;31.20;47.80;;;;;;10398614;28;20041;-42
2022/07/24 14:55:18;;;;;;;5.43;1.90;;;31.20;48.00;;;;;;10406491;28;20106;-42
2022/07/24 15:00:20;;;;;;;3.75;1.80;;;31.20;48.20;;;;;;10411892;28;20136;-43
2022/07/24 15:05:23;;;;;;;3.30;2.15;;;31.30;48.70;;;;;;10412882;28;20086;-41
2022/07/24 15:10:25;;;;;;;5.90;1.75;;;31.40;48.60;;;;;;10409540;28;20064;-41
2022/07/24 15:15:27;;;;;;;4.85;1.90;;;31.50;48.80;;;;;;10410520;28;20125;-43
2022/07/24 15:20:30;;;;;;;2.63;1.30;;;31.50;48.80;;;;;;10400934;28;20081;-39
2022/07/24 15:25:33;;;;;;;9.30;1.60;;;31.50;49.20;;;;;;10407216;28;20073;-43
2022/07/24 15:30:35;;;;;;;3.40;2.00;;;31.50;48.90;;;;;;10402956;28;20101;-42
2022/07/24 15:35:38;;;;;;;3.28;1.90;;;31.50;48.70;;;;;;10403529;28;20068;-42
2022/07/24 15:40:40;;;;;;;3.55;2.20;;;31.50;48.90;;;;;;10411465;28;20567;-45
2022/07/24 15:45:42;;;;;;;2.85;2.08;;;31.60;48.90;;;;;;10414746;28;20557;-45
2022/07/24 15:50:45;;;;;;;3.53;1.90;;;31.50;48.60;;;;;;10405360;28;20041;-44
2022/07/24 15:55:47;;;;;;;7.90;2.40;;;31.60;48.90;;;;;;10401020;28;20041;-41
2022/07/24 16:00:49;;;;;;;4.15;2.00;;;31.50;48.60;;;;;;10408989;28;20369;-42
2022/07/24 16:05:52;;;;;;;4.72;1.60;;;31.80;48.90;;;;;;10407275;28;20424;-42
2022/07/24 16:10:54;;;;;;;8.30;3.20;;;31.70;48.80;;;;;;10403475;28;20052;-41
2022/07/24 16:15:56;;;;;;;15.38;2.92;;;31.70;48.40;;;;;;10407489;28;20072;-43
2022/07/24 16:20:59;;;;;;;4.78;2.22;;;31.90;49.30;;;;;;10407308;28;20050;-42
2022/07/24 16:26:01;;;;;;;6.43;2.70;;;32.00;49.60;;;;;;10404927;28;20046;-43
2022/07/24 16:31:03;;;;;;;5.88;2.80;;;32.10;49.60;;;;;;10394398;28;20088;-45
2022/07/24 16:36:07;;;;;;;6.38;3.25;;;32.10;50.00;;;;;;10401925;28;20041;-44
2022/07/24 16:41:09;;;;;;;5.65;1.98;;;32.20;50.50;;;;;;10408535;28;20052;-39
2022/07/24 16:46:11;;;;;;;2.88;2.10;;;32.10;50.30;;;;;;10399402;28;20136;-41
2022/07/24 16:51:17;;;;;;;8.80;2.30;;;32.20;50.50;;;;;;10398704;28;20068;-45
2022/07/24 16:56:19;;;;;;;7.05;2.63;;;32.30;50.00;;;;;;10406598;28;20509;-42
2022/07/24 17:01:22;;;;;;;2.28;1.88;;;32.20;49.80;;;;;;10406613;28;20136;-47
2022/07/24 17:06:25;;;;;;;4.18;2.08;;;32.30;50.10;;;;;;10408172;28;20524;-42
2022/07/24 17:11:27;;;;;;;2.40;1.67;;;32.30;50.00;;;;;;10402075;28;20199;-42
2022/07/24 17:16:29;;;;;;;6.43;2.30;;;32.40;51.60;;;;;;10406724;28;20490;-42
2022/07/24 17:21:33;;;;;;;4.47;1.85;;;32.40;50.10;;;;;;10388469;28;20048;-41
2022/07/24 17:26:35;;;;;;;4.65;2.35;;;32.50;50.10;;;;;;10406037;28;20092;-41
2022/07/24 17:31:37;;;;;;;6.32;2.40;;;32.50;50.00;;;;;;10408917;28;20557;-40
2022/07/24 17:36:40;;;;;;;6.88;1.98;;;32.50;50.30;;;;;;10401135;28;20064;-40
2022/07/24 17:41:42;;;;;;;2.13;1.80;;;32.60;50.50;;;;;;10404054;28;20050;-45
2022/07/24 17:46:44;;;;;;;5.78;1.83;;;32.60;51.20;;;;;;10391018;28;20049;-43
2022/07/24 17:51:47;;;;;;;1.60;1.50;;;32.70;50.90;;;;;;10391845;28;20191;-40
2022/07/24 17:56:49;;;;;;;3.15;1.38;;;32.70;51.80;;;;;;10398758;28;20310;-40
2022/07/24 18:01:52;;;;;;;2.85;1.80;;;32.80;51.50;;;;;;10404587;28;20477;-39
2022/07/24 18:06:55;;;;;;;2.47;1.30;;;32.80;51.80;;;;;;10397493;28;20045;-39
2022/07/24 18:11:58;;;;;;;1.30;1.20;;;32.80;51.40;;;;;;10404117;28;20037;-39
2022/07/24 18:16:59;;;;;;;2.13;1.17;;;32.90;51.30;;;;;;10402582;28;20502;-40
2022/07/24 18:22:03;;;;;;;1.90;1.52;;;32.90;51.30;;;;;;10399668;28;20145;-43
2022/07/24 18:27:05;;;;;;;2.00;1.60;;;32.90;51.20;;;;;;10405436;28;20071;-40
2022/07/24 18:32:07;;;;;;;1.40;1.30;;;33.00;51.00;;;;;;10398490;28;20504;-43
2022/07/24 18:37:10;;;;;;;3.42;2.00;;;33.00;52.10;;;;;;10400820;28;20049;-39
2022/07/24 18:42:12;;;;;;;2.75;1.60;;;33.00;51.70;;;;;;10399522;28;20136;-42
2022/07/24 18:47:14;;;;;;;2.13;1.60;;;33.00;51.40;;;;;;10403611;28;20584;-41
2022/07/24 18:52:18;;;;;;;2.00;1.30;;;33.00;51.50;;;;;;10411083;28;20064;-43
2022/07/24 18:57:19;;;;;;;1.48;1.38;;;33.00;51.10;;;;;;10401510;28;20064;-41
2022/07/24 19:02:21;;;;;;;1.30;1.17;;;33.00;51.00;;;;;;10401225;28;20490;-41
2022/07/24 19:07:24;;;;;;;2.10;1.60;;;33.00;51.40;;;;;;10401234;28;20390;-39
2022/07/24 19:12:26;;;;;;;1.20;1.10;;;33.00;51.20;;;;;;10393339;28;20160;-47
2022/07/24 19:17:28;;;;;;;1.60;1.30;;;33.10;51.30;;;;;;10389243;28;20128;-40
2022/07/24 19:22:32;;;;;;;1.55;1.30;;;33.00;49.90;;;;;;10386358;28;20049;-44
2022/07/24 19:27:34;;;;;;;1.73;1.23;;;33.00;49.90;;;;;;10388764;28;20481;-42
2022/07/24 19:32:37;;;;;;;1.38;1.25;;;32.90;49.60;;;;;;10387072;28;20510;-42
2022/07/24 19:37:41;;;;;;;3.50;1.73;;;32.90;49.40;;;;;;10385692;28;20045;-45
2022/07/24 19:42:42;;;;;;;4.30;1.23;;;32.80;49.20;;;;;;10400874;28;20430;-41
2022/07/24 19:47:44;;;;;;;2.53;1.60;;;32.80;48.90;;;;;;10401033;28;20144;-40
2022/07/24 19:52:47;;;;;;;2.55;1.63;;;32.80;48.90;;;;;;10393318;28;20093;-40
2022/07/24 19:57:49;;;;;;;4.38;1.73;;;32.80;48.90;;;;;;10395148;28;20092;-40
2022/07/24 20:02:51;;;;;;;2.78;1.50;;;32.80;48.70;;;;;;10399237;28;20129;-41
2022/07/24 20:07:54;;;;;;;7.75;1.70;;;32.70;49.10;;;;;;10371235;28;20034;-40
2022/07/24 20:12:57;;;;;;;1.70;1.60;;;32.70;48.70;;;;;;10388117;28;20138;-44
2022/07/24 20:17:58;;;;;;;3.20;1.50;;;32.70;48.60;;;;;;10399466;28;20485;-42
2022/07/24 20:23:01;;;;;;;4.57;2.00;;;32.60;48.60;;;;;;10403768;28;20124;-41
2022/07/24 20:28:04;;;;;;;2.38;1.55;;;32.60;48.60;;;;;;10406378;28;20104;-46
2022/07/24 20:33:06;;;;;;;4.25;1.48;;;32.50;49.10;;;;;;10400450;28;20516;-45
2022/07/24 20:38:09;;;;;;;8.88;2.03;;;32.50;48.50;;;;;;10408015;28;20069;-43
2022/07/24 20:43:11;;;;;;;4.53;2.00;;;32.50;48.50;;;;;;10396847;28;20136;-41
2022/07/24 20:48:12;;;;;;;3.58;1.70;;;32.50;48.50;;;;;;10393756;28;20041;-42
2022/07/24 20:53:15;;;;;;;4.72;2.10;;;32.40;48.40;;;;;;10394637;28;20065;-40
2022/07/24 20:58:17;;;;;;;7.65;2.20;;;32.40;48.40;;;;;;10401485;28;20117;-42
2022/07/24 21:03:19;;;;;;;4.32;2.03;;;32.40;48.60;;;;;;10402551;28;20172;-46
2022/07/24 21:08:23;;;;;;;3.75;1.92;;;32.40;48.70;;;;;;10384539;28;20137;-47
2022/07/24 21:13:25;;;;;;;7.55;2.08;;;32.40;48.80;;;;;;10402685;28;20045;-40
2022/07/24 21:18:27;;;;;;;5.55;2.20;;;32.40;48.80;;;;;;10407506;28;20111;-46
2022/07/24 21:23:30;;;;;;;8.90;2.75;;;32.30;48.80;;;;;;10408920;28;20393;-40
2022/07/24 21:28:32;;;;;;;5.30;1.80;;;32.30;49.00;;;;;;10404929;28;20061;-40
2022/07/24 21:33:34;;;;;;;6.00;1.65;;;32.30;49.00;;;;;;10396350;28;20061;-39
2022/07/24 21:38:37;;;;;;;4.55;1.67;;;32.20;49.00;;;;;;10402599;28;20139;-39
2022/07/24 21:43:39;;;;;;;4.65;2.00;;;32.20;49.00;;;;;;10403293;28;20057;-41
2022/07/24 21:48:41;;;;;;;6.95;1.92;;;32.10;49.00;;;;;;10378575;28;20139;-42
2022/07/24 21:53:44;;;;;;;3.67;2.05;;;32.10;49.10;;;;;;10383857;28;20389;-42
2022/07/24 21:58:46;;;;;;;6.43;1.70;;;32.10;49.10;;;;;;10392929;28;20129;-42
2022/07/24 22:03:48;;;;;;;7.28;1.92;;;32.10;49.10;;;;;;10400231;28;20129;-44
2022/07/24 22:08:51;;;;;;;3.53;1.83;;;32.10;49.20;;;;;;10404257;28;20056;-40
2022/07/24 22:13:53;;;;;;;5.80;1.90;;;32.10;49.20;;;;;;10398851;28;20080;-40
2022/07/24 22:18:55;;;;;;;2.97;1.83;;;32.10;49.20;;;;;;10398457;28;20047;-41
2022/07/24 22:23:58;;;;;;;4.82;1.70;;;32.00;49.20;;;;;;10404423;28;20458;-43
2022/07/24 22:29:00;;;;;;;3.25;2.17;;;32.00;49.30;;;;;;10406496;28;20470;-41
2022/07/24 22:34:02;;;;;;;3.33;1.55;;;31.90;49.20;;;;;;10403253;28;20046;-42
2022/07/24 22:39:07;;;;;;;2.70;1.50;;;31.90;49.30;;;;;;10392064;28;20042;-42
2022/07/24 22:44:09;;;;;;;3.08;1.73;;;31.90;49.30;;;;;;10401528;28;20050;-41
2022/07/24 22:49:11;;;;;;;2.40;1.65;;;31.90;49.30;;;;;;10391044;28;20050;-40
2022/07/24 22:54:15;;;;;;;2.35;1.55;;;31.80;49.30;;;;;;10401421;28;20120;-41
2022/07/24 22:59:17;;;;;;;3.60;1.50;;;31.80;49.30;;;;;;10407931;28;20517;-40
2022/07/24 23:04:19;;;;;;;5.07;1.60;;;31.70;49.40;;;;;;10407880;28;20075;-39
2022/07/24 23:09:22;;;;;;;3.03;1.60;;;31.70;49.40;;;;;;10402772;28;20395;-44
2022/07/24 23:14:24;;;;;;;3.55;1.40;;;31.70;49.40;;;;;;10405407;28;20046;-41
2022/07/24 23:19:26;;;;;;;2.90;1.63;;;31.70;49.40;;;;;;10412387;28;20481;-39
2022/07/24 23:24:29;;;;;;;1.60;1.30;;;31.60;49.50;;;;;;10409256;28;20144;-43
2022/07/24 23:29:30;;;;;;;2.55;1.77;;;31.60;49.50;;;;;;10414201;28;20081;-41
2022/07/24 23:34:32;;;;;;;2.63;1.70;;;31.50;50.10;;;;;;10403229;28;20766;-42
2022/07/24 23:39:35;;;;;;;3.67;1.60;;;31.50;49.60;;;;;;10413498;28;20069;-45
2022/07/24 23:44:38;;;;;;;2.65;1.75;;;31.50;49.60;;;;;;10398817;28;20513;-41
2022/07/24 23:49:39;;;;;;;1.70;1.60;;;31.50;49.70;;;;;;10399517;28;20079;-45
2022/07/24 23:54:43;;;;;;;1.90;1.70;;;31.50;49.70;;;;;;10405168;28;20048;-43
2022/07/24 23:59:44;;;;;;;1.60;1.50;;;31.40;49.70;;;;;;10415240;28;20033;-43
